Latest Coastal Weather Observations for Whyalla

IDS60701

Issued at 12:31 pm CST Thursday 5 May 2016 (issued every 10 minutes, with the page automatically refreshed every 10 minutes)

About coastal observations | Map of coastal stations | Coastal observations for SA | Marine services | Other Formats
Station Details ID: 018120 Name: WHYALLA AERO Lat: -33.05 Lon: 137.52 Height: 9.3 m
Data from the previous 72 hours. | See also: Recent months at Whyalla
Date/Time
CST
Temp

°C
Wind Pressure Rain
since 9am
mm
Weather Cloud Vis
km
Sea
Height
m
Swell
Dir
 
Speed
knots
Gust
knots
hPa Trend Height
m
Period
s
Dir
05/12:30pm 26.1 NW 15 22 1013.6 - 0.0 - - 10 - - - -
05/12:00pm 24.5 NNW 16 23 1014.2 - 0.0 - - 10 - - - -
05/11:30am 24.0 N 17 24 1014.8 - 0.0 - - 10 - - - -
05/11:00am 23.8 NNW 17 21 1015.4 - 0.0 - - 10 - - - -
05/10:30am 22.9 N 15 19 1015.9 - 0.0 - - 10 - - - -
05/10:00am 22.1 N 14 19 1016.3 - 0.0 - - 10 - - - -
05/09:30am 20.7 N 14 18 1016.4 - 0.0 - - 10 - - - -
05/09:00am 18.8 N 12 16 1016.5 - 0.0 - - 10 - - - -
05/08:30am 16.3 NNW 8 9 1016.4 - 0.0 - - 10 - - - -
05/08:00am 12.1 NW 7 8 1016.3 - 0.0 - - 10 - - - -
05/07:30am 9.8 NW 6 7 1016.0 - 0.0 - - 10 - - - -
05/07:00am 8.5 NW 5 6 1016.0 - 0.0 - - 10 - - - -
05/06:30am 8.4 NW 6 7 1016.0 - 0.0 - - 10 - - - -
05/06:00am 8.5 WNW 7 9 1015.8 - 0.0 - - 10 - - - -
05/05:30am 8.9 NW 8 9 1015.6 - 0.0 - - 10 - - - -
05/05:00am 8.5 NW 6 7 1015.4 - 0.0 - - 10 - - - -
05/04:30am 9.6 NNW 5 7 1015.3 - 0.0 - - 10 - - - -
05/04:00am 9.6 NW 6 7 1015.4 - 0.0 - - 10 - - - -
05/03:30am 9.6 NW 6 6 1015.6 - 0.0 - - 10 - - - -
05/03:00am 9.9 NW 6 7 1015.9 - 0.0 - - 10 - - - -
05/02:30am 9.8 NNW 6 7 1016.1 - 0.0 - - 10 - - - -
05/02:00am 10.2 NW 4 5 1016.1 - 0.0 - - 10 - - - -
05/01:30am 10.7 NW 6 7 1016.3 - 0.0 - - 10 - - - -
05/01:00am 11.2 NNW 6 7 1016.3 - 0.0 - - 10 - - - -
05/12:30am 10.9 NNW 6 6 1016.5 - 0.0 - - 10 - - - -
05/12:00am 11.0 NNW 5 7 1016.6 - 0.0 - - 10 - - - -
 
Date/Time
CST
Temp

°C
Wind Pressure Rain
since 9am
mm
Weather Cloud Vis
km
Sea
Height
m
Swell
Dir
 
Speed
knots
Gust
knots
hPa Trend Height
m
Period
s
Dir
04/11:30pm 11.2 NNW 5 6 1016.6 - 0.0 - - 10 - - - -
04/11:00pm 12.3 NNW 6 7 1016.9 - 0.0 - - 10 - - - -
04/10:30pm 12.7 NNW 7 8 1017.2 - 0.0 - - 10 - - - -
04/10:00pm 12.8 NNW 6 7 1017.4 - 0.0 - - 10 - - - -
04/09:30pm 12.6 NNW 6 7 1017.3 - 0.0 - - 10 - - - -
04/09:00pm 12.5 NNW 6 6 1017.3 - 0.0 - - 10 - - - -
04/08:30pm 13.7 NW 5 5 1017.2 - 0.0 - - 10 - - - -
04/08:00pm 14.0 NNW 5 5 1017.1 - 0.0 - - 10 - - - -
04/07:30pm 14.9 NW 2 4 1016.8 - 0.0 - - 10 - - - -
04/07:00pm 15.8 CALM 0 0 1016.6 - 0.0 - - 10 - - - -
04/06:30pm 17.0 W 4 4 1016.2 - 0.0 - - 10 - - - -
04/06:00pm 18.3 WNW 5 6 1015.9 - 0.0 - - 10 - - - -
04/05:30pm 19.7 NW 6 8 1015.7 - 0.0 - - 10 - - - -
04/05:00pm 20.4 NW 10 13 1015.6 - 0.0 - Partly cloudy 10 - - - -
04/04:30pm 20.4 NNW 6 10 1015.6 - 0.0 - Cloudy 10 - - - -
04/04:00pm 20.5 NNW 9 13 1015.7 - 0.0 - Cloudy 10 - - - -
04/03:30pm 20.3 NW 9 14 1015.9 - 0.0 - Cloudy 10 - - - -
04/03:00pm 20.2 NNW 9 13 1015.9 - 0.0 - Cloudy 10 - - - -
04/02:30pm 20.6 WNW 9 13 1016.0 - 0.0 - Cloudy 10 - - - -
04/02:00pm 20.4 WNW 11 16 1016.2 - 0.0 - Cloudy 10 - - - -
04/01:30pm 20.3 NW 11 16 1016.5 - 0.0 - Cloudy 10 - - - -
04/01:00pm 21.6 NW 10 16 1016.8 - 0.0 - Partly cloudy 10 - - - -
04/12:30pm 20.4 NW 11 16 1017.2 - 0.0 - Partly cloudy 10 - - - -
04/12:00pm 20.0 NW 9 12 1017.9 - 0.0 - Mostly clear 10 - - - -
04/11:30am 20.1 NW 7 15 1018.2 - 0.0 - Partly cloudy 10 - - - -
04/11:00am 18.7 WNW 9 13 1018.6 - 0.0 - Partly cloudy 10 - - - -
04/10:30am 18.0 WNW 10 13 1018.8 - 0.0 - Cloudy 10 - - - -
04/10:00am 17.6 NW 8 11 1018.8 - 0.0 - Partly cloudy 10 - - - -
04/09:30am 16.6 WNW 9 11 1018.8 - 0.0 - Partly cloudy 10 - - - -
04/09:00am 15.9 WNW 9 12 1018.8 - 0.0 - - 10 - - - -
04/08:30am 14.6 NW 9 11 1018.7 - 0.0 - Partly cloudy 10 - - - -
04/08:00am 13.2 NNW 7 9 1018.4 - 0.0 - Partly cloudy 10 - - - -
04/07:30am 11.6 NNW 6 7 1018.0 - 0.0 - Partly cloudy 10 - - - -
04/07:00am 11.4 NW 7 9 1017.7 - 0.0 - Partly cloudy 10 - - - -
04/06:30am 11.8 NW 7 9 1017.3 - 0.0 - Cloudy 10 - - - -
04/06:00am 11.8 NW 5 6 1016.9 - 0.0 - Cloudy 10 - - - -
04/05:30am 11.3 NW 6 7 1016.7 - 0.0 - Partly cloudy 10 - - - -
04/05:00am 11.2 NW 9 10 1016.6 - 0.0 - Partly cloudy 10 - - - -
04/04:30am 10.5 NNW 7 8 1016.3 - 0.0 - Partly cloudy 10 - - - -
04/04:00am 10.6 NNW 5 6 1016.0 - 0.0 - Partly cloudy 10 - - - -
04/03:30am 11.4 NW 6 7 1015.9 - 0.0 - Partly cloudy 10 - - - -
04/03:00am 11.2 NNW 5 6 1015.9 - 0.0 - Partly cloudy 10 - - - -
04/02:30am 11.6 NW 7 7 1015.8 - 0.0 - - 10 - - - -
04/02:00am 12.3 NW 6 9 1015.8 - 0.0 - - 10 - - - -
04/01:30am 12.5 NNW 6 7 1015.8 - 0.0 - Partly cloudy 10 - - - -
04/01:00am 14.1 NNW 6 9 1015.7 - 0.0 - Cloudy 10 - - - -
04/12:30am 13.4 NNW 4 5 1016.0 - 0.0 - Partly cloudy 10 - - - -
04/12:00am 14.1 WNW 7 8 1015.8 - 0.0 - - 10 - - - -
 
Date/Time
CST
Temp

°C
Wind Pressure Rain
since 9am
mm
Weather Cloud Vis
km
Sea
Height
m
Swell
Dir
 
Speed
knots
Gust
knots
hPa Trend Height
m
Period
s
Dir
03/11:30pm 15.1 WNW 6 8 1015.8 - 0.0 - Partly cloudy 10 - - - -
03/11:00pm 15.9 W 9 12 1015.9 - 0.0 - Partly cloudy 10 - - - -
03/10:30pm 16.4 W 9 13 1016.0 - 0.0 - Partly cloudy 10 - - - -
03/10:00pm 16.4 W 11 14 1015.8 - 0.0 - Partly cloudy 10 - - - -
03/09:30pm 16.8 WSW 10 15 1015.5 - 0.0 - Partly cloudy 10 - - - -
03/09:00pm 17.0 W 9 11 1015.2 - 0.0 - Cloudy 10 - - - -
03/08:30pm 17.2 WSW 7 10 1015.0 - 0.0 - Partly cloudy 10 - - - -
03/08:00pm 17.2 SW 8 9 1014.6 - 0.0 - Partly cloudy 10 - - - -
03/07:30pm 16.3 WSW 6 7 1014.1 - 0.0 - Partly cloudy 10 - - - -
03/07:00pm 17.2 WNW 6 8 1013.5 - 0.0 - Partly cloudy 10 - - - -
03/06:30pm 18.0 WSW 7 8 1013.0 - 0.0 - Partly cloudy 10 - - - -
03/06:00pm 18.8 WSW 7 10 1012.6 - 0.0 - Mostly clear 10 - - - -
03/05:30pm 19.7 WSW 13 19 1012.1 - 0.0 - Partly cloudy 10 - - - -
03/05:00pm 20.7 SW 15 21 1011.6 - 0.0 - Partly cloudy 10 - - - -
03/04:30pm 21.7 WSW 17 23 1011.1 - 0.0 - Partly cloudy 10 - - - -
03/04:00pm 22.0 W 13 18 1010.7 - 0.0 - Partly cloudy 10 - - - -
03/03:30pm 20.9 WNW 17 23 1010.4 - 0.0 - Partly cloudy 10 - - - -
03/03:00pm 21.3 WNW 15 20 1010.4 - 0.0 - Cloudy 10 - - - -
03/02:30pm 22.3 WNW 14 19 1010.2 - 0.0 - Partly cloudy 10 - - - -
03/02:00pm 19.5 W 16 27 1010.4 - 0.0 - Partly cloudy 9 - - - -
03/01:53pm 19.8 W 16 27 1010.6 - 0.0 - Partly cloudy 10 - - - -
03/01:30pm 20.4 NW 15 19 1010.6 - 0.0 - Partly cloudy 10 - - - -
03/01:00pm 21.5 W 16 20 1010.6 - 0.0 - Partly cloudy 10 - - - -
03/12:30pm 21.5 W 17 24 1010.9 - 0.0 - Cloudy 10 - - - -
03/12:00pm 20.8 WNW 13 17 1011.1 - 0.0 - Mostly cloudy 10 - - - -
03/11:30am 21.7 WNW 16 23 1011.4 - 0.0 - Partly cloudy 10 - - - -
03/11:00am 19.8 WNW 17 23 1012.0 - 0.0 - Cloudy 10 - - - -
03/10:30am 20.0 WNW 15 22 1011.9 - 0.0 - Cloudy 10 - - - -
03/10:00am 19.9 NW 16 24 1011.6 - 0.0 - Partly cloudy 10 - - - -
03/09:30am 19.0 NW 17 22 1011.6 - 0.0 - Partly cloudy 10 - - - -
03/09:00am 18.5 NW 16 23 1011.5 - 0.0 - - 10 - - - -
03/08:30am 16.9 NNW 15 20 1011.6 - 0.0 - Partly cloudy 10 - - - -
03/08:00am 15.6 NW 13 17 1011.7 - 0.0 - Partly cloudy 10 - - - -
03/07:30am 14.0 NNW 12 15 1011.5 - 0.0 - - 10 - - - -
03/07:00am 12.4 NNW 9 11 1011.4 - 0.0 - - 10 - - - -
03/06:30am 12.6 N 10 13 1011.2 - 0.0 - - 10 - - - -
03/06:00am 12.2 NNW 9 10 1011.0 - 0.0 - - 10 - - - -
03/05:30am 12.0 NNW 10 11 1011.0 - 0.0 - - 10 - - - -
03/05:00am 12.5 NNW 10 12 1010.6 - 0.0 - - 10 - - - -
03/04:30am 13.0 N 9 12 1010.4 - 0.0 - - 10 - - - -
03/04:00am 14.0 N 10 14 1010.6 - 0.0 - - 10 - - - -
03/03:30am 14.4 N 11 15 1010.8 - 0.0 - - 10 - - - -
03/03:00am 14.1 N 10 13 1011.2 - 0.0 - - 10 - - - -
03/02:30am 13.4 N 8 10 1011.6 - 0.0 - - 10 - - - -
03/02:00am 12.7 N 7 8 1012.0 - 0.0 - - 10 - - - -
03/01:30am 12.8 NNW 6 9 1012.3 - 0.0 - - 10 - - - -
03/01:00am 13.4 N 6 7 1012.2 - 0.0 - - 10 - - - -
03/12:30am 14.0 N 6 7 1012.2 - 0.0 - - 10 - - - -
03/12:00am 14.8 NW 7 10 1012.5 - 0.0 - - 10 - - - -
 
Date/Time
CST
Temp

°C
Wind Pressure Rain
since 9am
mm
Weather Cloud Vis
km
Sea
Height
m
Swell
Dir
 
Speed
knots
Gust
knots
hPa Trend Height
m
Period
s
Dir
02/11:30pm 14.6 NNW 7 9 1012.7 - 0.0 - - 10 - - - -
02/11:00pm 14.5 NW 7 9 1012.9 - 0.0 - - 10 - - - -
02/10:30pm 14.4 NNW 8 10 1013.0 - 0.0 - - 10 - - - -
02/10:00pm 14.3 NNW 7 9 1013.2 - 0.0 - - 10 - - - -
02/09:30pm 15.6 NW 7 9 1013.2 - 0.0 - - 10 - - - -
02/09:00pm 14.6 NNW 5 7 1013.4 - 0.0 - - 10 - - - -
02/08:30pm 14.8 NNW 5 6 1013.4 - 0.0 - - 10 - - - -
02/08:00pm 16.3 WNW 5 7 1013.3 - 0.0 - - 10 - - - -
02/07:30pm 16.4 WNW 6 7 1013.2 - 0.0 - - 10 - - - -
02/07:00pm 18.0 NW 4 5 1012.9 - 0.0 - Partly cloudy 10 - - - -
02/06:30pm 19.3 WNW 5 5 1012.7 - 0.0 - Partly cloudy 10 - - - -
02/06:00pm 20.6 WNW 7 11 1012.3 - 0.0 - Cloudy 10 - - - -
02/05:30pm 21.4 W 9 13 1012.3 - 0.0 - Partly cloudy 10 - - - -
02/05:00pm 22.0 W 11 15 1012.3 - 0.0 - Partly cloudy 10 - - - -
02/04:30pm 22.5 W 13 19 1012.4 - 0.0 - Partly cloudy 10 - - - -
02/04:00pm 23.2 W 10 16 1012.3 - 0.0 - Partly cloudy 10 - - - -
02/03:30pm 23.0 WNW 13 17 1012.3 - 0.0 - Partly cloudy 10 - - - -
02/03:00pm 23.5 NW 14 22 1012.3 - 0.0 - Mostly clear 10 - - - -
02/02:30pm 22.8 WNW 14 21 1012.7 - 0.0 - Partly cloudy 10 - - - -
02/02:00pm 23.3 NW 15 21 1013.0 - 0.0 - Partly cloudy 10 - - - -
02/01:30pm 23.0 WNW 15 20 1013.3 - 0.0 - - 10 - - - -
02/01:00pm 22.5 WNW 15 21 1013.8 - 0.0 - Partly cloudy 10 - - - -

Other Formats:

Comma delimited format used in spreadsheet applications
http://www.bom.gov.au/fwo/IDS60701/IDS60701.95664.axf

JavaScript Object Notation format (JSON) in row-major order
http://www.bom.gov.au/fwo/IDS60701/IDS60701.95664.json